Time;durP1;ratioP1;P1;durP2;ratioP2;P2;SDS_P1;SDS_P2;PMS_P1;PMS_P2;Temp;Humidity;BMP_temperature;BMP_pressure;BME280_temperature;BME280_humidity;BME280_pressure;Samples;Min_cycle;Max_cycle;Signal;HPM_P1;HPM_P2
2021/08/17 00:00:51;;;;;;;0.80;0.77;;;15.90;99.90;;;;;;4986473;28;20290;-76
2021/08/17 00:03:18;;;;;;;0.77;0.77;;;16.00;99.90;;;;;;4988841;28;20574;-75
2021/08/17 00:05:47;;;;;;;0.90;0.70;;;16.20;99.90;;;;;;4984824;28;20240;-76
2021/08/17 00:08:14;;;;;;;0.85;0.82;;;16.30;99.90;;;;;;4987785;28;20220;-76
2021/08/17 00:10:41;;;;;;;0.73;0.73;;;16.40;99.90;;;;;;4988026;28;20286;-76
2021/08/17 00:13:09;;;;;;;0.75;0.75;;;16.60;99.90;;;;;;4985136;28;21374;-76
2021/08/17 00:15:36;;;;;;;0.75;0.68;;;16.80;99.90;;;;;;4985549;28;20231;-76
2021/08/17 00:18:03;;;;;;;1.02;0.60;;;17.00;99.90;;;;;;4986222;28;20780;-76
2021/08/17 00:20:30;;;;;;;0.60;0.60;;;17.00;99.90;;;;;;4982929;28;20286;-76
2021/08/17 00:22:59;;;;;;;0.80;0.80;;;17.00;99.90;;;;;;4984738;28;20298;-76
2021/08/17 00:25:26;;;;;;;0.63;0.63;;;16.90;99.90;;;;;;4987975;28;20706;-76
2021/08/17 00:27:53;;;;;;;1.90;0.75;;;16.90;99.90;;;;;;4984111;28;20265;-76
2021/08/17 00:30:20;;;;;;;3.35;1.00;;;16.70;99.90;;;;;;4991748;28;20703;-77
2021/08/17 00:32:47;;;;;;;0.70;0.70;;;16.30;99.90;;;;;;4988529;28;21150;-76
2021/08/17 00:35:14;;;;;;;1.23;0.90;;;16.10;99.90;;;;;;4987233;28;20268;-77
2021/08/17 00:37:41;;;;;;;1.17;1.00;;;16.10;99.90;;;;;;4989848;28;20231;-77
2021/08/17 00:40:12;;;;;;;2.83;1.10;;;16.20;99.90;;;;;;4995609;28;20294;-77
2021/08/17 00:42:41;;;;;;;0.93;0.88;;;16.30;99.90;;;;;;4988278;28;20221;-76
2021/08/17 00:45:09;;;;;;;3.53;1.02;;;16.30;99.90;;;;;;4988165;28;20231;-76
2021/08/17 00:47:36;;;;;;;0.85;0.85;;;16.20;99.90;;;;;;4988095;28;20640;-76
2021/08/17 00:50:04;;;;;;;1.20;0.70;;;16.10;99.90;;;;;;4993115;28;20278;-76
2021/08/17 00:52:32;;;;;;;0.80;0.80;;;16.20;99.90;;;;;;4990476;28;20290;-76
2021/08/17 00:54:59;;;;;;;1.77;0.88;;;16.40;99.90;;;;;;4996267;28;20232;-76
2021/08/17 00:57:27;;;;;;;0.73;0.73;;;16.40;99.90;;;;;;4990054;28;20296;-76
2021/08/17 00:59:54;;;;;;;1.65;0.90;;;16.50;99.90;;;;;;4994168;28;20254;-76
2021/08/17 01:02:22;;;;;;;0.80;0.80;;;16.60;99.90;;;;;;4990394;28;20233;-76
2021/08/17 01:04:49;;;;;;;1.10;0.73;;;16.60;99.90;;;;;;4989133;28;20627;-76
2021/08/17 01:07:17;;;;;;;0.80;0.80;;;16.60;99.90;;;;;;4993789;28;20224;-76
2021/08/17 01:09:44;;;;;;;0.88;0.88;;;16.50;99.90;;;;;;4997175;28;20775;-76
2021/08/17 01:12:11;;;;;;;1.15;0.90;;;16.60;99.90;;;;;;4990191;28;20964;-77
2021/08/17 01:14:40;;;;;;;0.68;0.68;;;16.50;99.90;;;;;;4992679;28;20703;-76
2021/08/17 01:17:07;;;;;;;0.82;0.82;;;16.40;99.90;;;;;;4992040;28;20240;-76
2021/08/17 01:19:35;;;;;;;1.52;1.25;;;16.30;99.90;;;;;;4991196;28;20295;-76
2021/08/17 01:22:02;;;;;;;0.88;0.80;;;16.30;99.90;;;;;;4988923;28;20747;-77
2021/08/17 01:24:29;;;;;;;1.02;0.73;;;16.30;99.90;;;;;;4994147;28;20710;-77
2021/08/17 01:26:58;;;;;;;0.85;0.85;;;16.30;99.90;;;;;;4991668;28;20228;-76
2021/08/17 01:29:25;;;;;;;1.20;1.10;;;16.30;99.90;;;;;;4994069;28;20295;-77
2021/08/17 01:31:52;;;;;;;0.70;0.70;;;16.30;99.90;;;;;;4988953;28;20300;-76
2021/08/17 01:34:19;;;;;;;0.90;0.90;;;16.40;99.90;;;;;;4988081;28;20232;-76
2021/08/17 01:36:47;;;;;;;0.95;0.80;;;16.40;99.90;;;;;;4989848;28;20236;-77
2021/08/17 01:39:14;;;;;;;0.90;0.90;;;16.40;99.90;;;;;;4991085;28;20221;-76
2021/08/17 01:41:41;;;;;;;2.33;0.90;;;16.50;99.90;;;;;;4983210;28;20922;-76
2021/08/17 01:44:10;;;;;;;1.08;0.98;;;16.40;99.90;;;;;;4987433;28;20224;-76
2021/08/17 01:46:38;;;;;;;0.70;0.70;;;16.30;99.90;;;;;;4995615;28;20231;-76
2021/08/17 01:49:05;;;;;;;0.85;0.85;;;16.10;99.90;;;;;;4987672;28;20449;-76
2021/08/17 01:51:32;;;;;;;0.93;0.82;;;16.20;99.90;;;;;;4988152;28;20613;-76
2021/08/17 01:54:01;;;;;;;0.93;0.90;;;16.20;99.90;;;;;;4988157;28;20643;-76
2021/08/17 01:56:28;;;;;;;1.25;1.05;;;16.40;99.90;;;;;;4989321;28;20734;-76
2021/08/17 01:58:55;;;;;;;1.13;1.00;;;16.50;99.90;;;;;;4989543;28;20236;-76
2021/08/17 02:01:24;;;;;;;0.90;0.90;;;16.50;99.90;;;;;;4988108;28;20221;-76
2021/08/17 02:03:51;;;;;;;0.93;0.88;;;16.50;99.90;;;;;;4982362;28;20229;-76
2021/08/17 02:06:18;;;;;;;0.90;0.90;;;16.40;99.90;;;;;;4986789;28;20224;-76
2021/08/17 02:08:45;;;;;;;2.05;1.08;;;16.30;99.90;;;;;;4988375;28;20359;-76
2021/08/17 02:11:12;;;;;;;0.80;0.75;;;16.20;99.90;;;;;;4988956;28;20326;-76
2021/08/17 02:13:39;;;;;;;1.20;1.10;;;15.80;99.90;;;;;;4995309;28;20237;-76
2021/08/17 02:16:06;;;;;;;1.00;1.00;;;15.70;99.90;;;;;;4990709;28;20227;-76
2021/08/17 02:18:36;;;;;;;1.10;1.00;;;15.70;99.90;;;;;;4990972;28;20283;-76
2021/08/17 02:21:04;;;;;;;0.93;0.93;;;15.90;99.90;;;;;;4989046;28;20237;-76
2021/08/17 02:23:32;;;;;;;1.27;1.17;;;16.00;99.90;;;;;;4987537;28;20233;-77
2021/08/17 02:26:00;;;;;;;1.40;1.30;;;16.20;99.90;;;;;;4985605;28;20232;-76
2021/08/17 02:28:27;;;;;;;0.90;0.90;;;16.20;99.90;;;;;;4986658;28;20255;-76
2021/08/17 02:30:54;;;;;;;1.45;0.90;;;16.10;99.90;;;;;;4990611;28;20972;-76
2021/08/17 02:33:21;;;;;;;1.13;1.00;;;16.20;99.90;;;;;;4984316;28;20217;-76
2021/08/17 02:35:50;;;;;;;1.63;1.30;;;16.20;99.90;;;;;;4984750;28;20229;-76
2021/08/17 02:38:17;;;;;;;1.23;1.13;;;16.20;99.90;;;;;;4985196;28;20229;-76
2021/08/17 02:40:44;;;;;;;1.20;0.88;;;16.20;99.90;;;;;;4985064;28;20224;-76
2021/08/17 02:43:11;;;;;;;0.90;0.90;;;16.20;99.90;;;;;;4986781;28;20306;-76
2021/08/17 02:45:39;;;;;;;1.20;1.10;;;16.20;99.90;;;;;;4987707;28;20228;-76
2021/08/17 02:48:06;;;;;;;1.08;1.05;;;16.20;99.90;;;;;;4988562;28;20289;-76
2021/08/17 02:50:33;;;;;;;1.13;1.08;;;16.20;99.90;;;;;;4985914;28;20225;-75
2021/08/17 02:53:02;;;;;;;1.60;1.33;;;16.20;99.90;;;;;;4988155;28;20232;-76
2021/08/17 02:55:29;;;;;;;0.90;0.90;;;16.00;99.90;;;;;;4985285;28;20280;-76
2021/08/17 02:57:59;;;;;;;1.23;1.13;;;15.80;99.90;;;;;;4989657;28;20290;-75
2021/08/17 03:00:26;;;;;;;1.35;1.20;;;15.80;99.90;;;;;;4984453;28;20303;-75
2021/08/17 03:02:53;;;;;;;1.38;1.27;;;15.60;99.90;;;;;;4989553;28;20363;-76
2021/08/17 03:05:20;;;;;;;3.20;1.60;;;15.20;99.90;;;;;;4990879;28;20220;-76
2021/08/17 03:07:53;;;;;;;2.00;1.63;;;14.80;99.90;;;;;;4992472;28;20227;-76
2021/08/17 03:10:23;;;;;;;1.38;1.27;;;14.60;99.90;;;;;;4982975;28;20244;-77
2021/08/17 03:12:50;;;;;;;1.55;1.45;;;14.40;99.90;;;;;;4989595;28;20266;-75
2021/08/17 03:15:18;;;;;;;2.92;1.67;;;14.20;99.90;;;;;;4986089;28;20236;-76
2021/08/17 03:17:45;;;;;;;4.38;1.90;;;14.10;99.90;;;;;;4987159;28;20890;-76
2021/08/17 03:20:14;;;;;;;1.80;1.60;;;14.00;99.90;;;;;;4984854;28;20252;-76
2021/08/17 03:22:41;;;;;;;1.60;1.50;;;13.90;99.90;;;;;;4984985;28;20235;-76
2021/08/17 03:25:11;;;;;;;1.60;1.30;;;13.90;99.90;;;;;;4987225;28;20278;-76
2021/08/17 03:27:40;;;;;;;1.42;1.30;;;14.00;99.90;;;;;;4990472;28;20275;-76
2021/08/17 03:30:09;;;;;;;1.67;1.58;;;14.30;99.90;;;;;;4994504;28;20227;-76
2021/08/17 03:32:37;;;;;;;2.00;1.60;;;14.70;99.90;;;;;;4988634;28;20626;-76
2021/08/17 03:35:05;;;;;;;1.30;1.20;;;15.10;99.90;;;;;;4989133;28;20262;-76
2021/08/17 03:37:32;;;;;;;1.40;1.30;;;15.30;99.90;;;;;;4986432;28;20220;-76
2021/08/17 03:39:59;;;;;;;1.75;1.50;;;15.40;99.90;;;;;;4986188;28;20279;-76
2021/08/17 03:42:29;;;;;;;2.70;1.60;;;15.30;99.90;;;;;;4984857;28;20229;-76
2021/08/17 03:44:57;;;;;;;1.67;1.40;;;15.00;99.90;;;;;;4986783;28;20259;-76
2021/08/17 03:47:25;;;;;;;1.85;1.67;;;14.70;99.90;;;;;;4990115;28;20255;-76
2021/08/17 03:49:52;;;;;;;1.45;1.35;;;14.60;99.90;;;;;;4990033;28;20228;-76
2021/08/17 03:52:19;;;;;;;1.52;1.35;;;14.60;99.90;;;;;;4985091;28;20232;-76
2021/08/17 03:54:46;;;;;;;1.60;1.50;;;14.40;99.90;;;;;;4986544;28;20560;-76
2021/08/17 03:57:13;;;;;;;2.85;1.48;;;14.60;99.90;;;;;;4982691;28;20703;-76
2021/08/17 03:59:40;;;;;;;1.40;1.30;;;14.90;99.90;;;;;;4986688;28;20322;-76
2021/08/17 04:02:09;;;;;;;1.50;1.40;;;15.20;99.90;;;;;;4989507;28;20240;-76
2021/08/17 04:04:36;;;;;;;1.50;1.40;;;15.50;99.90;;;;;;4995044;28;20615;-76
2021/08/17 04:07:03;;;;;;;3.95;1.50;;;15.60;99.90;;;;;;4988349;28;20236;-76
2021/08/17 04:09:30;;;;;;;1.85;1.58;;;15.70;99.90;;;;;;4994478;28;20228;-76
2021/08/17 04:11:57;;;;;;;1.42;1.33;;;15.80;99.90;;;;;;4990328;28;21136;-76
2021/08/17 04:14:24;;;;;;;2.55;1.30;;;15.60;99.90;;;;;;4991669;28;20255;-76
2021/08/17 04:16:52;;;;;;;1.50;1.40;;;15.50;99.90;;;;;;4993917;28;20282;-76
2021/08/17 04:19:20;;;;;;;1.50;1.40;;;15.60;99.90;;;;;;4985939;28;20229;-76
2021/08/17 04:21:47;;;;;;;1.60;1.50;;;15.60;99.90;;;;;;4996023;28;20310;-76
2021/08/17 04:24:14;;;;;;;1.75;1.50;;;15.70;99.90;;;;;;4989100;28;20248;-76
2021/08/17 04:26:41;;;;;;;2.05;1.33;;;15.80;99.90;;;;;;4988455;28;20224;-76
2021/08/17 04:29:08;;;;;;;2.22;1.40;;;15.90;99.90;;;;;;4983800;28;20800;-76
2021/08/17 04:31:35;;;;;;;1.55;1.45;;;15.90;99.90;;;;;;4990303;28;22025;-76
2021/08/17 04:34:03;;;;;;;1.30;1.20;;;16.00;99.90;;;;;;4996686;28;20220;-76
2021/08/17 04:36:31;;;;;;;2.08;1.67;;;16.00;99.90;;;;;;5002364;28;20300;-79
2021/08/17 04:38:58;;;;;;;1.70;1.60;;;16.20;99.90;;;;;;4998247;28;20229;-78
2021/08/17 04:41:26;;;;;;;1.73;1.60;;;16.30;99.90;;;;;;5001540;28;20725;-78
2021/08/17 04:43:53;;;;;;;2.53;1.33;;;16.30;99.90;;;;;;4997357;28;20319;-78
2021/08/17 04:46:20;;;;;;;1.50;1.30;;;16.10;99.90;;;;;;5001252;28;20220;-79
2021/08/17 04:48:49;;;;;;;2.15;1.50;;;16.40;99.90;;;;;;5008594;28;20232;-79
2021/08/17 04:51:16;;;;;;;1.90;1.40;;;16.80;99.90;;;;;;4997121;28;20259;-79
2021/08/17 04:53:45;;;;;;;2.65;1.70;;;16.90;99.90;;;;;;5005886;28;20303;-81
2021/08/17 04:56:12;;;;;;;1.92;1.58;;;17.00;99.90;;;;;;4996506;28;20766;-78
2021/08/17 04:58:39;;;;;;;2.17;1.33;;;17.00;99.90;;;;;;4995644;28;20620;-78
2021/08/17 05:01:06;;;;;;;3.17;1.63;;;17.00;99.90;;;;;;4992064;28;20258;-78
2021/08/17 05:03:33;;;;;;;1.30;1.20;;;16.90;99.90;;;;;;5005212;28;20239;-79
2021/08/17 05:06:00;;;;;;;1.70;1.60;;;16.90;99.90;;;;;;5018293;28;20208;-79
2021/08/17 05:08:27;;;;;;;2.13;1.65;;;17.10;99.90;;;;;;5024691;28;20219;-80
2021/08/17 05:10:55;;;;;;;1.48;1.30;;;17.40;99.90;;;;;;5018227;28;20236;-80
2021/08/17 05:13:22;;;;;;;2.03;1.33;;;17.70;99.90;;;;;;5017586;28;20228;-80
2021/08/17 05:15:49;;;;;;;2.17;1.40;;;17.90;99.90;;;;;;5017043;28;20233;-80
2021/08/17 05:18:16;;;;;;;1.40;1.30;;;18.00;99.90;;;;;;5017549;28;20205;-79
2021/08/17 05:20:43;;;;;;;1.70;1.48;;;18.10;99.90;;;;;;5021046;28;20205;-79
2021/08/17 05:23:10;;;;;;;1.67;1.58;;;18.10;99.90;;;;;;5037159;28;20227;-79
2021/08/17 05:25:37;;;;;;;1.50;1.40;;;17.80;99.90;;;;;;5017682;28;20251;-79
2021/08/17 05:28:07;;;;;;;1.70;1.60;;;17.70;99.90;;;;;;5018017;28;20221;-79
2021/08/17 05:30:34;;;;;;;1.98;1.77;;;17.70;99.90;;;;;;5021233;28;20224;-79
2021/08/17 05:33:02;;;;;;;3.60;2.05;;;17.60;99.90;;;;;;5012275;28;20256;-79
2021/08/17 05:35:29;;;;;;;3.35;1.67;;;17.60;99.90;;;;;;5010753;28;20675;-80
2021/08/17 05:37:56;;;;;;;1.67;1.48;;;17.30;99.90;;;;;;5007078;28;20283;-79
2021/08/17 05:40:23;;;;;;;1.42;1.33;;;17.30;99.90;;;;;;4999430;28;20236;-79
2021/08/17 05:42:50;;;;;;;2.00;1.80;;;17.60;99.90;;;;;;4991982;28;20284;-78
2021/08/17 05:45:18;;;;;;;1.60;1.50;;;18.00;99.90;;;;;;5000860;28;20220;-79
2021/08/17 05:47:46;;;;;;;1.45;1.35;;;18.50;99.90;;;;;;4998534;28;20291;-78
2021/08/17 05:50:14;;;;;;;1.60;1.50;;;18.90;99.90;;;;;;4995699;28;20228;-78
2021/08/17 05:52:42;;;;;;;1.65;1.50;;;19.20;99.90;;;;;;5005105;28;20224;-78
2021/08/17 05:55:10;;;;;;;1.65;1.55;;;19.50;99.90;;;;;;5001914;28;20258;-78
2021/08/17 05:57:37;;;;;;;1.70;1.15;;;19.50;99.90;;;;;;5003573;28;20228;-79
2021/08/17 06:00:05;;;;;;;1.70;1.50;;;19.10;99.90;;;;;;5014667;28;20284;-79
2021/08/17 06:02:33;;;;;;;1.80;1.48;;;19.10;99.90;;;;;;5002728;28;20282;-78
2021/08/17 06:05:00;;;;;;;1.92;1.33;;;19.30;99.90;;;;;;4988491;28;20232;-77
2021/08/17 06:07:27;;;;;;;1.70;1.60;;;19.10;99.90;;;;;;5000331;28;20311;-79
2021/08/17 06:09:55;;;;;;;1.52;1.42;;;19.00;99.90;;;;;;4995785;28;20219;-79
2021/08/17 06:12:22;;;;;;;2.20;2.00;;;18.90;99.90;;;;;;5015791;28;20197;-80
2021/08/17 06:14:49;;;;;;;3.20;2.00;;;18.60;99.90;;;;;;4991396;28;20225;-79
2021/08/17 06:17:16;;;;;;;2.53;1.83;;;18.10;99.90;;;;;;4992751;28;20224;-78
2021/08/17 06:19:45;;;;;;;3.92;2.05;;;17.90;99.90;;;;;;4991966;28;20274;-78
2021/08/17 06:22:12;;;;;;;1.70;1.60;;;18.00;99.90;;;;;;4992703;28;20659;-78
2021/08/17 06:24:39;;;;;;;1.60;1.50;;;18.30;99.90;;;;;;4989003;28;20221;-78
2021/08/17 06:27:06;;;;;;;3.30;2.10;;;18.40;99.90;;;;;;4992338;28;20228;-77
2021/08/17 06:29:33;;;;;;;2.65;1.95;;;18.30;99.90;;;;;;4997291;28;20279;-78
2021/08/17 06:32:00;;;;;;;3.20;1.48;;;18.40;99.90;;;;;;4993887;28;20232;-78
2021/08/17 06:34:27;;;;;;;1.70;1.58;;;18.60;99.90;;;;;;4987087;28;20637;-77
2021/08/17 06:36:55;;;;;;;1.70;1.60;;;18.80;99.90;;;;;;4987014;28;20279;-78
2021/08/17 06:39:22;;;;;;;1.60;1.50;;;19.20;99.90;;;;;;4978058;28;20655;-78
2021/08/17 06:41:49;;;;;;;1.95;1.75;;;19.60;99.90;;;;;;4985793;28;20620;-78
2021/08/17 06:44:16;;;;;;;4.20;1.88;;;19.80;99.90;;;;;;4987177;28;21249;-77
2021/08/17 06:46:43;;;;;;;2.70;2.17;;;19.60;99.90;;;;;;4980799;28;20224;-78
2021/08/17 06:49:11;;;;;;;1.80;1.60;;;19.40;99.90;;;;;;4983530;28;20229;-78
2021/08/17 06:51:38;;;;;;;2.58;1.70;;;19.40;99.90;;;;;;4982414;28;20295;-78
2021/08/17 06:54:06;;;;;;;2.20;1.67;;;19.50;99.90;;;;;;4994167;28;20648;-78
2021/08/17 06:56:33;;;;;;;2.30;1.73;;;19.70;99.90;;;;;;4982348;28;20224;-78
2021/08/17 06:59:00;;;;;;;1.80;1.50;;;20.00;99.90;;;;;;4982055;28;20227;-78
2021/08/17 07:01:27;;;;;;;4.00;1.80;;;20.60;99.90;;;;;;4981115;28;20315;-78
2021/08/17 07:03:54;;;;;;;3.10;1.85;;;20.80;99.90;;;;;;4979407;28;20252;-78
2021/08/17 07:06:21;;;;;;;1.70;1.60;;;20.80;99.90;;;;;;4984157;28;20224;-78
2021/08/17 07:08:49;;;;;;;1.83;1.55;;;21.20;99.90;;;;;;4978304;28;20232;-79
2021/08/17 07:11:17;;;;;;;2.05;1.80;;;21.50;99.90;;;;;;4978554;28;20231;-78
2021/08/17 07:13:44;;;;;;;2.63;1.50;;;21.60;99.90;;;;;;4973330;28;20312;-78
2021/08/17 07:16:11;;;;;;;2.20;1.80;;;21.50;99.90;;;;;;4984899;28;20233;-78
2021/08/17 07:18:38;;;;;;;1.75;1.42;;;21.50;99.90;;;;;;4979767;28;20931;-77
2021/08/17 07:21:05;;;;;;;2.80;1.92;;;21.70;99.90;;;;;;4977715;28;20232;-79
2021/08/17 07:23:32;;;;;;;3.00;1.70;;;21.50;99.90;;;;;;4986633;28;20964;-79
2021/08/17 07:25:59;;;;;;;2.08;1.50;;;21.20;99.90;;;;;;4987793;28;20228;-81
2021/08/17 07:28:28;;;;;;;2.17;1.55;;;21.10;99.90;;;;;;4988896;28;20232;-80
2021/08/17 07:30:55;;;;;;;1.55;1.38;;;20.90;99.90;;;;;;4988207;28;20649;-79
2021/08/17 07:33:23;;;;;;;3.25;1.65;;;21.00;99.90;;;;;;4981539;28;20228;-78
2021/08/17 07:35:50;;;;;;;2.83;2.13;;;21.00;99.90;;;;;;4986788;28;20232;-79
2021/08/17 07:38:17;;;;;;;2.70;1.83;;;20.90;99.90;;;;;;4984820;28;20232;-79
2021/08/17 07:40:45;;;;;;;2.60;2.00;;;20.90;99.90;;;;;;4987661;28;20294;-78
2021/08/17 07:43:13;;;;;;;1.65;1.50;;;21.00;99.90;;;;;;4982676;28;20224;-78
2021/08/17 07:45:41;;;;;;;1.88;1.52;;;21.30;99.90;;;;;;4982992;28;20223;-79
2021/08/17 07:48:09;;;;;;;1.85;1.63;;;21.50;99.90;;;;;;4979639;28;20635;-78
2021/08/17 07:50:38;;;;;;;1.92;1.73;;;21.30;99.90;;;;;;4977206;28;20287;-79
2021/08/17 07:53:06;;;;;;;2.08;1.52;;;21.30;99.90;;;;;;4979422;28;20225;-78
2021/08/17 07:55:34;;;;;;;1.80;1.50;;;21.50;99.90;;;;;;4969027;28;20238;-78
2021/08/17 07:58:01;;;;;;;1.95;1.63;;;21.80;99.90;;;;;;4977584;28;20279;-80
2021/08/17 08:00:28;;;;;;;1.50;1.33;;;22.10;99.90;;;;;;4985465;28;20242;-82
2021/08/17 08:02:56;;;;;;;2.17;1.45;;;22.50;99.90;;;;;;4986200;28;20979;-79
2021/08/17 08:05:23;;;;;;;1.65;1.55;;;22.80;99.90;;;;;;4983966;28;21650;-83
2021/08/17 08:07:50;;;;;;;2.22;2.03;;;23.20;99.90;;;;;;4978029;28;20231;-78
2021/08/17 08:10:17;;;;;;;1.52;1.42;;;23.40;99.90;;;;;;4987918;28;20232;-82
2021/08/17 08:12:44;;;;;;;2.35;1.75;;;23.50;99.90;;;;;;4977139;28;20227;-79
2021/08/17 08:15:12;;;;;;;1.42;1.33;;;23.70;99.90;;;;;;4982144;28;20220;-79
2021/08/17 08:17:40;;;;;;;1.50;1.38;;;23.80;99.90;;;;;;4976646;28;20641;-79
2021/08/17 08:20:10;;;;;;;1.95;1.55;;;23.90;99.90;;;;;;4984015;28;20283;-79
2021/08/17 08:22:37;;;;;;;1.70;1.60;;;24.00;99.90;;;;;;4988260;28;20224;-80
2021/08/17 08:25:06;;;;;;;1.90;1.58;;;24.00;99.90;;;;;;4992033;28;20220;-82
2021/08/17 08:27:33;;;;;;;2.40;1.70;;;24.10;99.90;;;;;;4988434;28;20290;-81
2021/08/17 08:30:00;;;;;;;3.38;1.80;;;24.00;99.90;;;;;;4991817;28;20710;-83
2021/08/17 08:32:28;;;;;;;2.28;1.70;;;24.00;99.90;;;;;;4991209;28;20326;-78
2021/08/17 08:34:55;;;;;;;2.03;1.30;;;24.00;99.90;;;;;;4977939;28;20271;-78
2021/08/17 08:37:23;;;;;;;1.55;1.45;;;24.00;99.90;;;;;;4979072;28;20225;-79
2021/08/17 08:39:50;;;;;;;1.60;1.40;;;24.30;99.90;;;;;;4983821;28;20236;-82
2021/08/17 08:42:17;;;;;;;1.30;1.20;;;24.40;99.90;;;;;;4986782;28;20233;-81
2021/08/17 08:44:46;;;;;;;2.08;1.27;;;24.50;99.90;;;;;;4985535;28;20216;-80
2021/08/17 08:47:13;;;;;;;1.45;1.25;;;24.70;99.90;;;;;;4976591;28;20220;-80
2021/08/17 08:49:43;;;;;;;2.88;1.60;;;24.80;99.90;;;;;;4979382;28;20243;-79
2021/08/17 08:52:11;;;;;;;1.70;1.45;;;24.90;99.90;;;;;;4983129;28;20228;-79
2021/08/17 08:54:39;;;;;;;1.90;1.40;;;24.80;99.90;;;;;;4985277;28;20225;-82
2021/08/17 08:57:06;;;;;;;1.92;1.45;;;24.80;99.90;;;;;;4984106;28;20229;-79
2021/08/17 08:59:34;;;;;;;1.20;1.10;;;24.60;99.90;;;;;;4986477;28;20294;-80
2021/08/17 09:02:08;;;;;;;3.80;1.40;;;24.60;99.90;;;;;;4984357;28;20228;-79
2021/08/17 09:04:35;;;;;;;1.73;1.52;;;24.80;99.90;;;;;;4987608;28;20220;-80
2021/08/17 09:07:03;;;;;;;1.80;1.40;;;24.80;99.90;;;;;;4984764;28;20225;-80
2021/08/17 09:09:30;;;;;;;2.80;1.50;;;24.40;99.90;;;;;;4990108;28;20235;-81
2021/08/17 09:12:00;;;;;;;2.05;1.42;;;24.30;99.90;;;;;;4986069;28;20255;-79
2021/08/17 09:14:29;;;;;;;1.80;1.40;;;24.00;99.90;;;;;;4986128;28;20241;-79
2021/08/17 09:16:57;;;;;;;1.30;1.05;;;24.00;99.90;;;;;;4982833;28;20240;-80
2021/08/17 09:19:27;;;;;;;1.85;1.40;;;24.20;99.90;;;;;;4987954;28;20295;-80
2021/08/17 09:21:55;;;;;;;3.05;1.00;;;24.30;99.90;;;;;;4983600;28;20225;-79
2021/08/17 09:24:24;;;;;;;1.23;1.10;;;24.30;99.90;;;;;;4999237;28;20232;-83
2021/08/17 09:26:54;;;;;;;1.48;1.30;;;24.40;99.90;;;;;;4995550;28;20682;-82
2021/08/17 09:29:32;;;;;;;1.60;1.15;;;24.50;99.90;;;;;;4997198;28;20683;-82
2021/08/17 09:32:01;;;;;;;1.42;1.20;;;24.60;99.90;;;;;;4997179;28;20240;-81
2021/08/17 09:34:35;;;;;;;1.27;1.17;;;24.70;99.90;;;;;;4996986;28;20631;-81
2021/08/17 09:37:08;;;;;;;1.20;1.10;;;24.80;99.90;;;;;;4986451;28;20230;-79
2021/08/17 09:39:39;;;;;;;1.52;1.10;;;25.00;99.90;;;;;;4981876;28;20252;-81
2021/08/17 09:42:22;;;;;;;1.42;1.20;;;25.40;99.90;;;;;;4975960;28;20258;-82
2021/08/17 09:45:07;;;;;;;1.10;1.00;;;25.70;99.90;;;;;;4976970;28;20247;-80
2021/08/17 09:47:35;;;;;;;1.15;0.90;;;26.00;99.90;;;;;;4981576;28;20223;-83
2021/08/17 09:50:20;;;;;;;1.20;1.10;;;25.90;99.90;;;;;;4981019;28;20249;-85
2021/08/17 09:52:50;;;;;;;1.60;1.00;;;26.20;99.90;;;;;;4981773;28;20259;-84
2021/08/17 09:55:19;;;;;;;1.23;1.00;;;26.40;99.90;;;;;;4968558;28;20279;-84
2021/08/17 09:57:46;;;;;;;1.20;1.10;;;26.70;99.90;;;;;;4979718;28;20624;-84
2021/08/17 10:00:17;;;;;;;1.23;1.00;;;27.10;99.90;;;;;;4977332;28;20620;-83
2021/08/17 10:02:46;;;;;;;0.90;0.90;;;27.40;99.90;;;;;;4983512;28;20224;-84
2021/08/17 10:05:15;;;;;;;1.38;1.00;;;27.40;99.90;;;;;;4981396;28;20221;-84
2021/08/17 10:07:43;;;;;;;0.80;0.80;;;27.10;99.90;;;;;;4978185;28;20224;-86
2021/08/17 10:10:13;;;;;;;1.02;1.00;;;27.00;99.90;;;;;;4960504;28;20819;-85
2021/08/17 10:12:40;;;;;;;0.95;0.85;;;27.20;99.90;;;;;;4981658;28;20224;-84
2021/08/17 10:15:09;;;;;;;1.33;1.20;;;27.10;99.90;;;;;;4984623;28;20606;-85
2021/08/17 10:17:37;;;;;;;1.17;1.00;;;26.90;99.90;;;;;;4978801;28;22381;-84
2021/08/17 10:20:06;;;;;;;2.20;1.05;;;26.20;99.90;;;;;;4980931;28;20227;-85
2021/08/17 10:22:38;;;;;;;1.63;1.02;;;25.90;99.90;;;;;;4979643;28;20969;-85
2021/08/17 10:25:11;;;;;;;1.58;0.80;;;25.70;99.90;;;;;;4979821;28;20266;-82
2021/08/17 10:27:38;;;;;;;2.00;1.27;;;25.40;99.90;;;;;;4983638;28;20217;-82
2021/08/17 10:30:11;;;;;;;0.90;0.90;;;25.30;99.90;;;;;;4983180;28;20223;-82
2021/08/17 10:32:51;;;;;;;1.80;0.93;;;25.10;99.90;;;;;;4980756;28;20243;-81
2021/08/17 10:35:55;;;;;;;1.58;0.90;;;25.00;99.90;;;;;;4980689;28;20637;-81
2021/08/17 10:38:55;;;;;;;1.13;0.90;;;25.40;99.90;;;;;;4979374;28;20964;-82
2021/08/17 10:41:33;;;;;;;0.93;0.90;;;25.80;99.90;;;;;;4989263;28;20287;-84
2021/08/17 10:44:19;;;;;;;1.50;0.80;;;25.90;99.90;;;;;;4981995;28;20319;-84
2021/08/17 10:47:05;;;;;;;0.98;0.80;;;26.10;99.90;;;;;;4983277;28;20266;-84
2021/08/17 10:49:49;;;;;;;0.90;0.70;;;26.00;99.90;;;;;;4980749;28;20298;-84
2021/08/17 10:52:36;;;;;;;1.73;0.70;;;25.90;99.90;;;;;;4978813;28;20238;-85
2021/08/17 10:55:40;;;;;;;0.50;0.50;;;25.90;99.90;;;;;;4981800;28;20235;-85
2021/08/17 10:58:11;;;;;;;0.80;0.80;;;26.10;99.90;;;;;;4980518;28;20944;-83
2021/08/17 11:00:47;;;;;;;0.77;0.70;;;26.30;99.90;;;;;;4976410;28;20328;-79
2021/08/17 11:03:14;;;;;;;0.52;0.52;;;26.30;99.90;;;;;;4979386;28;20797;-82
2021/08/17 11:05:53;;;;;;;0.60;0.60;;;26.40;99.90;;;;;;4981835;28;20232;-82
2021/08/17 11:08:38;;;;;;;0.65;0.60;;;26.90;99.90;;;;;;4973586;28;20324;-82
2021/08/17 11:11:18;;;;;;;0.70;0.70;;;27.40;99.90;;;;;;4977882;28;21044;-82
2021/08/17 11:14:03;;;;;;;0.65;0.65;;;27.50;99.90;;;;;;4979160;28;20666;-83
2021/08/17 11:16:30;;;;;;;0.57;0.57;;;27.40;99.90;;;;;;4979097;28;20217;-83
2021/08/17 11:19:00;;;;;;;0.70;0.70;;;27.30;99.90;;;;;;4979304;28;20283;-80
2021/08/17 11:21:33;;;;;;;0.82;0.60;;;27.20;99.90;;;;;;4977223;28;20289;-83
2021/08/17 11:24:09;;;;;;;0.60;0.60;;;27.30;99.90;;;;;;4978267;28;20232;-83
2021/08/17 11:26:36;;;;;;;0.70;0.60;;;27.50;99.90;;;;;;4982195;28;20211;-85
2021/08/17 11:29:04;;;;;;;0.73;0.70;;;27.60;99.90;;;;;;4982660;28;20227;-84
2021/08/17 11:31:32;;;;;;;0.80;0.70;;;27.50;99.90;;;;;;4981196;28;20765;-85
2021/08/17 11:34:16;;;;;;;0.60;0.60;;;27.40;99.90;;;;;;4978633;28;20240;-85
2021/08/17 11:36:52;;;;;;;0.70;0.70;;;27.40;99.90;;;;;;4975581;28;20216;-86
2021/08/17 11:39:25;;;;;;;1.23;0.63;;;27.60;99.90;;;;;;4983935;28;20224;-86
2021/08/17 11:41:53;;;;;;;0.70;0.70;;;27.70;99.90;;;;;;4976030;28;20220;-86
2021/08/17 11:44:20;;;;;;;0.68;0.68;;;27.80;99.90;;;;;;4973976;28;20239;-88
2021/08/17 11:46:48;;;;;;;0.50;0.50;;;27.80;99.90;;;;;;4979807;28;20231;-86
2021/08/17 11:49:22;;;;;;;0.93;0.65;;;28.00;99.90;;;;;;4980872;28;20216;-86
2021/08/17 11:52:13;;;;;;;0.50;0.50;;;27.90;99.90;;;;;;4982117;28;20235;-87
2021/08/17 11:54:57;;;;;;;0.88;0.70;;;28.10;99.90;;;;;;4982116;28;20248;-85
2021/08/17 11:57:30;;;;;;;0.73;0.73;;;28.30;99.90;;;;;;4979402;28;20228;-86
2021/08/17 12:00:03;;;;;;;0.73;0.70;;;28.20;99.90;;;;;;4977438;28;20229;-87
2021/08/17 12:02:30;;;;;;;2.25;0.90;;;28.30;99.90;;;;;;4986199;28;20370;-83
2021/08/17 12:04:59;;;;;;;1.00;0.90;;;28.50;99.90;;;;;;4979548;28;20220;-87
2021/08/17 12:07:29;;;;;;;0.70;0.70;;;28.60;99.90;;;;;;4979175;28;20243;-85
2021/08/17 12:10:04;;;;;;;0.80;0.80;;;28.50;99.90;;;;;;4977490;28;20224;-86
2021/08/17 12:13:00;;;;;;;0.95;0.88;;;28.50;99.90;;;;;;4979647;28;20290;-86
2021/08/17 12:15:33;;;;;;;0.80;0.80;;;28.50;99.90;;;;;;4978176;28;20369;-87
2021/08/17 12:18:03;;;;;;;0.65;0.65;;;28.20;99.90;;;;;;4980693;28;20671;-87
2021/08/17 12:20:31;;;;;;;1.02;0.80;;;27.90;99.90;;;;;;4975792;28;20319;-87
2021/08/17 12:22:59;;;;;;;0.63;0.63;;;27.70;99.90;;;;;;4983149;28;20714;-87
2021/08/17 12:25:28;;;;;;;0.60;0.60;;;27.50;99.90;;;;;;4978966;28;20232;-86
2021/08/17 12:27:58;;;;;;;0.70;0.70;;;27.30;99.90;;;;;;4985394;28;20342;-87
2021/08/17 12:30:30;;;;;;;1.50;0.68;;;27.20;99.90;;;;;;4981609;28;20317;-86
2021/08/17 12:32:58;;;;;;;0.68;0.68;;;27.10;99.90;;;;;;4982671;28;20237;-88
2021/08/17 12:35:29;;;;;;;0.60;0.60;;;27.00;99.90;;;;;;4985586;28;20287;-87
2021/08/17 12:38:13;;;;;;;1.83;0.50;;;26.90;99.90;;;;;;4978302;28;20221;-85
2021/08/17 12:40:46;;;;;;;0.68;0.60;;;26.90;99.90;;;;;;4977982;28;20228;-87
2021/08/17 12:43:20;;;;;;;0.70;0.70;;;27.00;99.90;;;;;;4974638;28;20220;-87
2021/08/17 12:45:47;;;;;;;0.80;0.80;;;27.10;99.90;;;;;;4977803;28;20580;-87
2021/08/17 12:48:16;;;;;;;0.52;0.50;;;27.10;99.90;;;;;;4977702;28;20233;-87
2021/08/17 12:50:45;;;;;;;0.90;0.90;;;27.10;99.90;;;;;;4975770;28;20227;-84
2021/08/17 12:53:21;;;;;;;0.95;0.80;;;27.20;99.90;;;;;;4973969;28;20702;-86
2021/08/17 12:55:49;;;;;;;0.68;0.68;;;27.30;99.90;;;;;;4977083;28;20247;-86
2021/08/17 12:58:18;;;;;;;0.73;0.73;;;27.40;99.90;;;;;;4981477;28;20728;-87